CCA6208 KHBV-KHBZ
Flight info
| Callsign | CCA6208 |
|---|---|
| Flight time | 1h 53m |
| Altitude | 35000 |
| Route | CRP J29 IAH Q33 CIDOR J50 AEX |
| Aircraft | B737/M-V/N |
Departure
| Time | 2026-04-29 12:27 |
|---|---|
| Airport | Jim Hogg County Airport (KHBV) |
Arrival
| Time | 2026-04-29 14:21 |
|---|---|
| Airport | Heber Springs Municipal Airport (KHBZ) |
| Time | Latitude | Longitude | Altitude | Speed | Heading |
|---|---|---|---|---|---|
| 2026-04-29 12:18 | 27.35155 | -98.74164 | 671 ft | 0 kts | 224° |
| 2026-04-29 12:21 | 27.35162 | -98.74157 | 671 ft | 2 kts | 226° |
| 2026-04-29 12:21 | 27.35172 | -98.74140 | 671 ft | 3 kts | 245° |
| 2026-04-29 12:21 | 27.35178 | -98.74119 | 671 ft | 3 kts | 265° |
| 2026-04-29 12:22 | 27.35176 | -98.74096 | 671 ft | 3 kts | 284° |
| 2026-04-29 12:22 | 27.35169 | -98.74074 | 671 ft | 3 kts | 299° |
| 2026-04-29 12:22 | 27.35157 | -98.74056 | 671 ft | 3 kts | 312° |
| 2026-04-29 12:22 | 27.35154 | -98.74052 | 671 ft | 0 kts | 313° |
| 2026-04-29 12:24 | 27.35157 | -98.74056 | 671 ft | 3 kts | 310° |
| 2026-04-29 12:24 | 27.35199 | -98.74111 | 671 ft | 14 kts | 313° |
| 2026-04-29 12:24 | 27.35265 | -98.74187 | 671 ft | 11 kts | 315° |
| 2026-04-29 12:24 | 27.35305 | -98.74233 | 671 ft | 7 kts | 313° |
| 2026-04-29 12:25 | 27.35350 | -98.74286 | 671 ft | 7 kts | 313° |
| 2026-04-29 12:25 | 27.35391 | -98.74292 | 671 ft | 9 kts | 36° |
| 2026-04-29 12:25 | 27.35418 | -98.74227 | 671 ft | 3 kts | 126° |
| 2026-04-29 12:26 | 27.35411 | -98.74217 | 671 ft | 0 kts | 131° |
| 2026-04-29 12:26 | 27.35381 | -98.74183 | 671 ft | 22 kts | 134° |
| 2026-04-29 12:26 | 27.35112 | -98.73871 | 671 ft | 87 kts | 135° |
| 2026-04-29 12:26 | 27.34562 | -98.73237 | 671 ft | 140 kts | 134° |
| 2026-04-29 12:27 | 27.33788 | -98.72340 | 735 ft | 174 kts | 134° |
| 2026-04-29 12:27 | 27.32892 | -98.71317 | 1160 ft | 190 kts | 129° |
| 2026-04-29 12:27 | 27.32178 | -98.70022 | 1781 ft | 201 kts | 121° |
| 2026-04-29 12:27 | 27.31804 | -98.68477 | 2404 ft | 216 kts | 98° |
| 2026-04-29 12:28 | 27.32147 | -98.66742 | 2691 ft | 240 kts | 66° |
| 2026-04-29 12:28 | 27.32995 | -98.65061 | 3195 ft | 252 kts | 59° |
| 2026-04-29 12:28 | 27.33956 | -98.63320 | 3697 ft | 270 kts | 57° |
| 2026-04-29 12:28 | 27.34955 | -98.61524 | 4403 ft | 277 kts | 57° |
| 2026-04-29 12:29 | 27.35973 | -98.59660 | 5204 ft | 282 kts | 58° |
| 2026-04-29 12:29 | 27.37001 | -98.57758 | 5988 ft | 286 kts | 58° |
| 2026-04-29 12:29 | 27.38028 | -98.55830 | 6753 ft | 289 kts | 58° |
| 2026-04-29 12:29 | 27.39063 | -98.53863 | 7515 ft | 293 kts | 58° |
| 2026-04-29 12:30 | 27.40096 | -98.51878 | 8247 ft | 296 kts | 59° |
| 2026-04-29 12:30 | 27.41139 | -98.49851 | 8973 ft | 299 kts | 59° |
| 2026-04-29 12:30 | 27.42211 | -98.47867 | 9664 ft | 302 kts | 54° |
| 2026-04-29 12:30 | 27.43483 | -98.45977 | 10348 ft | 305 kts | 50° |
| 2026-04-29 12:31 | 27.44749 | -98.44010 | 10901 ft | 314 kts | 54° |
| 2026-04-29 12:31 | 27.45967 | -98.41852 | 11230 ft | 331 kts | 57° |
| 2026-04-29 12:31 | 27.47167 | -98.39557 | 11486 ft | 349 kts | 58° |
| 2026-04-29 12:31 | 27.48386 | -98.37125 | 11719 ft | 366 kts | 59° |
| 2026-04-29 12:32 | 27.49645 | -98.34552 | 11935 ft | 382 kts | 59° |
| 2026-04-29 12:32 | 27.50944 | -98.31870 | 12194 ft | 396 kts | 59° |
| 2026-04-29 12:32 | 27.52251 | -98.29120 | 12677 ft | 401 kts | 60° |
| 2026-04-29 12:32 | 27.53563 | -98.26326 | 13240 ft | 405 kts | 60° |
| 2026-04-29 12:33 | 27.54799 | -98.23668 | 13758 ft | 408 kts | 60° |
| 2026-04-29 12:33 | 27.56097 | -98.20854 | 14289 ft | 411 kts | 60° |
| 2026-04-29 12:33 | 27.57432 | -98.17944 | 14755 ft | 417 kts | 60° |
| 2026-04-29 12:33 | 27.58776 | -98.14999 | 15053 ft | 425 kts | 60° |
| 2026-04-29 12:34 | 27.60147 | -98.11985 | 15551 ft | 428 kts | 60° |
| 2026-04-29 12:34 | 27.61508 | -98.08984 | 16011 ft | 431 kts | 60° |
| 2026-04-29 12:34 | 27.62877 | -98.05958 | 16444 ft | 435 kts | 60° |
| 2026-04-29 12:34 | 27.64255 | -98.02906 | 16873 ft | 438 kts | 60° |
| 2026-04-29 12:35 | 27.65643 | -97.99829 | 17285 ft | 442 kts | 60° |
| 2026-04-29 12:35 | 27.67039 | -97.96727 | 17685 ft | 445 kts | 59° |
| 2026-04-29 12:35 | 27.68445 | -97.93601 | 18119 ft | 447 kts | 59° |
| 2026-04-29 12:35 | 27.69874 | -97.90422 | 18506 ft | 450 kts | 59° |
| 2026-04-29 12:36 | 27.71329 | -97.87180 | 18899 ft | 453 kts | 59° |
| 2026-04-29 12:36 | 27.72757 | -97.83995 | 19261 ft | 456 kts | 59° |
| 2026-04-29 12:36 | 27.74199 | -97.80777 | 19529 ft | 461 kts | 59° |
| 2026-04-29 12:36 | 27.75654 | -97.77528 | 19865 ft | 464 kts | 59° |
| 2026-04-29 12:37 | 27.77123 | -97.74268 | 20200 ft | 467 kts | 59° |
| 2026-04-29 12:37 | 27.78600 | -97.70976 | 20526 ft | 470 kts | 60° |
| 2026-04-29 12:37 | 27.80076 | -97.67673 | 20881 ft | 472 kts | 59° |
| 2026-04-29 12:37 | 27.81574 | -97.64313 | 21220 ft | 474 kts | 59° |
| 2026-04-29 12:38 | 27.83057 | -97.60982 | 21541 ft | 475 kts | 59° |
| 2026-04-29 12:38 | 27.84542 | -97.57640 | 21844 ft | 477 kts | 59° |
| 2026-04-29 12:38 | 27.85531 | -97.55412 | 22029 ft | 479 kts | 59° |
| 2026-04-29 12:38 | 27.87524 | -97.50922 | 22590 ft | 476 kts | 59° |
| 2026-04-29 12:39 | 27.89023 | -97.47605 | 23130 ft | 469 kts | 56° |
| 2026-04-29 12:39 | 27.90098 | -97.45502 | 23352 ft | 467 kts | 53° |
| 2026-04-29 12:39 | 27.91941 | -97.42460 | 23485 ft | 467 kts | 47° |
| 2026-04-29 12:39 | 27.94709 | -97.38679 | 23753 ft | 467 kts | 43° |
| 2026-04-29 12:40 | 27.96162 | -97.36807 | 23821 ft | 471 kts | 43° |
| 2026-04-29 12:40 | 27.98337 | -97.33998 | 23887 ft | 477 kts | 43° |
| 2026-04-29 12:40 | 28.00561 | -97.31111 | 24010 ft | 481 kts | 43° |
| 2026-04-29 12:40 | 28.02757 | -97.28248 | 24244 ft | 482 kts | 43° |
| 2026-04-29 12:41 | 28.04956 | -97.25375 | 24426 ft | 484 kts | 43° |
| 2026-04-29 12:41 | 28.07165 | -97.22480 | 24587 ft | 487 kts | 43° |
| 2026-04-29 12:41 | 28.09380 | -97.19575 | 24811 ft | 487 kts | 43° |
| 2026-04-29 12:41 | 28.11594 | -97.16666 | 25007 ft | 488 kts | 43° |
| 2026-04-29 12:42 | 28.13810 | -97.13760 | 25367 ft | 484 kts | 42° |
| 2026-04-29 12:42 | 28.16065 | -97.10809 | 25682 ft | 483 kts | 42° |
| 2026-04-29 12:42 | 28.18274 | -97.07917 | 25768 ft | 486 kts | 42° |
| 2026-04-29 12:42 | 28.20490 | -97.05017 | 25929 ft | 488 kts | 42° |
| 2026-04-29 12:43 | 28.22748 | -97.02049 | 26034 ft | 491 kts | 42° |
| 2026-04-29 12:43 | 28.24986 | -96.99099 | 26102 ft | 494 kts | 42° |
| 2026-04-29 12:43 | 28.27228 | -96.96138 | 26259 ft | 495 kts | 42° |
| 2026-04-29 12:43 | 28.29476 | -96.93164 | 26423 ft | 496 kts | 42° |
| 2026-04-29 12:44 | 28.31722 | -96.90190 | 26548 ft | 498 kts | 43° |
| 2026-04-29 12:44 | 28.33979 | -96.87200 | 26668 ft | 500 kts | 43° |
| 2026-04-29 12:44 | 28.36245 | -96.84197 | 26824 ft | 501 kts | 42° |
| 2026-04-29 12:44 | 28.38514 | -96.81188 | 26960 ft | 502 kts | 43° |
| 2026-04-29 12:45 | 28.40828 | -96.78122 | 27011 ft | 505 kts | 43° |
| 2026-04-29 12:45 | 28.43117 | -96.75084 | 27098 ft | 507 kts | 43° |
| 2026-04-29 12:45 | 28.45404 | -96.72043 | 27319 ft | 506 kts | 43° |
| 2026-04-29 12:45 | 28.47688 | -96.69005 | 27544 ft | 505 kts | 43° |
| 2026-04-29 12:46 | 28.50012 | -96.65911 | 27650 ft | 508 kts | 43° |
| 2026-04-29 12:46 | 28.52276 | -96.62894 | 27826 ft | 508 kts | 43° |
| 2026-04-29 12:46 | 28.54561 | -96.59847 | 28070 ft | 507 kts | 43° |
| 2026-04-29 12:46 | 28.56854 | -96.56806 | 28293 ft | 506 kts | 42° |
| 2026-04-29 12:47 | 28.59185 | -96.53717 | 28420 ft | 508 kts | 42° |
| 2026-04-29 12:47 | 28.61481 | -96.50662 | 28636 ft | 507 kts | 42° |
| 2026-04-29 12:47 | 28.63770 | -96.47607 | 28876 ft | 506 kts | 42° |
| 2026-04-29 12:47 | 28.66052 | -96.44554 | 29095 ft | 506 kts | 42° |
| 2026-04-29 12:48 | 28.68336 | -96.41494 | 29238 ft | 507 kts | 42° |
| 2026-04-29 12:48 | 28.70651 | -96.38391 | 29481 ft | 506 kts | 42° |
| 2026-04-29 12:48 | 28.72930 | -96.35334 | 29729 ft | 505 kts | 41° |
| 2026-04-29 12:48 | 28.75281 | -96.32389 | 29967 ft | 499 kts | 37° |
| 2026-04-29 12:49 | 28.77791 | -96.29709 | 30272 ft | 490 kts | 32° |
| 2026-04-29 12:49 | 28.80492 | -96.27304 | 30542 ft | 483 kts | 27° |
| 2026-04-29 12:49 | 28.83228 | -96.25109 | 30808 ft | 479 kts | 25° |
| 2026-04-29 12:49 | 28.85977 | -96.22953 | 31045 ft | 479 kts | 25° |
| 2026-04-29 12:50 | 28.88745 | -96.20772 | 31330 ft | 477 kts | 25° |
| 2026-04-29 12:50 | 28.91467 | -96.18618 | 31639 ft | 475 kts | 25° |
| 2026-04-29 12:50 | 28.94175 | -96.16470 | 31892 ft | 472 kts | 25° |
| 2026-04-29 12:51 | 28.99556 | -96.12184 | 31929 ft | 470 kts | 25° |
| 2026-04-29 12:51 | 29.04894 | -96.07923 | 31935 ft | 470 kts | 25° |
| 2026-04-29 12:52 | 29.10317 | -96.03606 | 31946 ft | 473 kts | 25° |
| 2026-04-29 12:52 | 29.15696 | -95.99308 | 31953 ft | 470 kts | 25° |
| 2026-04-29 12:53 | 29.21073 | -95.95001 | 31954 ft | 474 kts | 26° |
| 2026-04-29 12:53 | 29.26503 | -95.90644 | 31954 ft | 478 kts | 26° |
| 2026-04-29 12:54 | 29.31941 | -95.86273 | 31955 ft | 476 kts | 26° |
| 2026-04-29 12:54 | 29.37338 | -95.81929 | 31955 ft | 473 kts | 26° |
| 2026-04-29 12:55 | 29.42753 | -95.77564 | 31949 ft | 477 kts | 26° |
| 2026-04-29 12:55 | 29.48192 | -95.73174 | 31947 ft | 477 kts | 26° |
| 2026-04-29 12:56 | 29.53617 | -95.68788 | 31944 ft | 477 kts | 26° |
| 2026-04-29 12:56 | 29.59074 | -95.64371 | 31938 ft | 480 kts | 26° |
| 2026-04-29 12:57 | 29.64568 | -95.59918 | 31944 ft | 478 kts | 26° |
| 2026-04-29 12:57 | 29.69980 | -95.55528 | 31949 ft | 475 kts | 26° |
| 2026-04-29 12:58 | 29.74489 | -95.51876 | 31942 ft | 480 kts | 26° |
| 2026-04-29 12:58 | 29.80873 | -95.46679 | 31939 ft | 484 kts | 26° |
| 2026-04-29 12:59 | 29.85466 | -95.42932 | 31942 ft | 482 kts | 26° |
| 2026-04-29 12:59 | 29.90947 | -95.38452 | 31948 ft | 485 kts | 26° |
| 2026-04-29 12:59 | 29.93546 | -95.35925 | 31948 ft | 499 kts | 36° |
| 2026-04-29 13:00 | 29.95818 | -95.32824 | 31954 ft | 512 kts | 46° |
| 2026-04-29 13:00 | 29.97666 | -95.29256 | 31958 ft | 524 kts | 56° |
| 2026-04-29 13:00 | 29.99116 | -95.25310 | 31962 ft | 531 kts | 63° |
| 2026-04-29 13:01 | 30.01598 | -95.17304 | 31959 ft | 531 kts | 63° |
| 2026-04-29 13:01 | 30.04182 | -95.09279 | 31948 ft | 526 kts | 62° |
| 2026-04-29 13:02 | 30.06760 | -95.01418 | 31946 ft | 525 kts | 62° |
| 2026-04-29 13:02 | 30.09412 | -94.93490 | 31957 ft | 531 kts | 62° |
| 2026-04-29 13:03 | 30.12076 | -94.85474 | 31953 ft | 529 kts | 62° |
| 2026-04-29 13:03 | 30.14693 | -94.77539 | 31956 ft | 525 kts | 62° |
| 2026-04-29 13:04 | 30.17328 | -94.69638 | 31960 ft | 522 kts | 59° |
| 2026-04-29 13:04 | 30.20988 | -94.62546 | 31975 ft | 500 kts | 43° |
| 2026-04-29 13:05 | 30.25761 | -94.56872 | 31979 ft | 488 kts | 33° |
| 2026-04-29 13:05 | 30.30590 | -94.51813 | 31980 ft | 488 kts | 33° |
| 2026-04-29 13:06 | 30.35617 | -94.46467 | 31987 ft | 488 kts | 33° |
| 2026-04-29 13:06 | 30.40596 | -94.41121 | 31997 ft | 488 kts | 33° |
| 2026-04-29 13:07 | 30.45580 | -94.35753 | 31995 ft | 489 kts | 33° |
| 2026-04-29 13:07 | 30.50575 | -94.30372 | 31993 ft | 490 kts | 33° |
| 2026-04-29 13:08 | 30.55557 | -94.24983 | 31994 ft | 490 kts | 33° |
| 2026-04-29 13:08 | 30.60550 | -94.19565 | 31996 ft | 491 kts | 33° |
| 2026-04-29 13:09 | 30.65547 | -94.14131 | 31996 ft | 491 kts | 33° |
| 2026-04-29 13:09 | 30.70542 | -94.08689 | 31997 ft | 492 kts | 33° |
| 2026-04-29 13:10 | 30.75533 | -94.03242 | 31997 ft | 492 kts | 33° |
| 2026-04-29 13:10 | 30.80531 | -93.97779 | 31994 ft | 493 kts | 33° |
| 2026-04-29 13:11 | 30.85502 | -93.92337 | 31995 ft | 493 kts | 33° |
| 2026-04-29 13:11 | 30.90496 | -93.86862 | 31995 ft | 493 kts | 33° |
| 2026-04-29 13:12 | 30.95490 | -93.81378 | 31993 ft | 493 kts | 33° |
| 2026-04-29 13:12 | 31.00433 | -93.75956 | 31992 ft | 493 kts | 33° |
| 2026-04-29 13:13 | 31.05481 | -93.70405 | 31989 ft | 493 kts | 33° |
| 2026-04-29 13:13 | 31.10494 | -93.64869 | 31988 ft | 493 kts | 33° |
| 2026-04-29 13:14 | 31.15483 | -93.59347 | 31980 ft | 493 kts | 33° |
| 2026-04-29 13:14 | 31.20092 | -93.53323 | 31971 ft | 515 kts | 51° |
| 2026-04-29 13:14 | 31.21640 | -93.49423 | 31968 ft | 529 kts | 65° |
| 2026-04-29 13:15 | 31.22418 | -93.45405 | 31962 ft | 540 kts | 78° |
| 2026-04-29 13:15 | 31.22575 | -93.38778 | 31981 ft | 548 kts | 84° |
| 2026-04-29 13:16 | 31.22790 | -93.29843 | 31999 ft | 554 kts | 84° |
| 2026-04-29 13:16 | 31.23083 | -93.20809 | 31996 ft | 553 kts | 83° |
| 2026-04-29 13:17 | 31.23402 | -93.11843 | 31996 ft | 553 kts | 83° |
| 2026-04-29 13:17 | 31.23761 | -93.02861 | 31995 ft | 553 kts | 83° |
| 2026-04-29 13:18 | 31.24107 | -92.93833 | 31995 ft | 552 kts | 83° |
| 2026-04-29 13:18 | 31.24453 | -92.84844 | 31994 ft | 553 kts | 82° |
| 2026-04-29 13:19 | 31.24791 | -92.75861 | 31994 ft | 552 kts | 83° |
| 2026-04-29 13:19 | 31.25105 | -92.66897 | 31994 ft | 553 kts | 82° |
| 2026-04-29 13:19 | 31.25646 | -92.62509 | 31979 ft | 539 kts | 66° |
| 2026-04-29 13:20 | 31.26545 | -92.59858 | 31984 ft | 525 kts | 53° |
| 2026-04-29 13:20 | 31.28624 | -92.56475 | 31991 ft | 499 kts | 34° |
| 2026-04-29 13:20 | 31.31324 | -92.54119 | 31998 ft | 472 kts | 17° |
| 2026-04-29 13:20 | 31.34294 | -92.52696 | 32001 ft | 455 kts | 6° |
| 2026-04-29 13:21 | 31.38314 | -92.51489 | 31996 ft | 447 kts | 1° |
| 2026-04-29 13:21 | 31.43365 | -92.50303 | 31994 ft | 442 kts | 359° |
| 2026-04-29 13:22 | 31.49438 | -92.49288 | 31994 ft | 438 kts | 355° |
| 2026-04-29 13:22 | 31.55480 | -92.48607 | 31994 ft | 435 kts | 354° |
| 2026-04-29 13:23 | 31.61504 | -92.48075 | 31994 ft | 434 kts | 353° |
| 2026-04-29 13:23 | 31.67523 | -92.47608 | 31994 ft | 433 kts | 353° |
| 2026-04-29 13:24 | 31.73546 | -92.47176 | 31994 ft | 433 kts | 352° |
| 2026-04-29 13:24 | 31.79564 | -92.46765 | 31995 ft | 433 kts | 352° |
| 2026-04-29 13:25 | 31.85576 | -92.46367 | 31994 ft | 433 kts | 352° |
| 2026-04-29 13:25 | 31.94610 | -92.45780 | 31994 ft | 433 kts | 352° |
| 2026-04-29 13:26 | 32.00629 | -92.45394 | 31994 ft | 434 kts | 351° |
| 2026-04-29 13:26 | 32.06683 | -92.45007 | 31994 ft | 435 kts | 351° |
| 2026-04-29 13:27 | 32.12723 | -92.44621 | 31994 ft | 434 kts | 351° |
| 2026-04-29 13:27 | 32.18752 | -92.44237 | 31994 ft | 435 kts | 351° |
| 2026-04-29 13:28 | 32.24806 | -92.43851 | 31994 ft | 435 kts | 351° |
| 2026-04-29 13:28 | 32.30867 | -92.43464 | 31994 ft | 435 kts | 351° |
| 2026-04-29 13:29 | 32.36906 | -92.43078 | 31994 ft | 436 kts | 351° |
| 2026-04-29 13:29 | 32.42939 | -92.42693 | 31994 ft | 436 kts | 351° |
| 2026-04-29 13:30 | 32.49011 | -92.42304 | 31994 ft | 435 kts | 351° |
| 2026-04-29 13:30 | 32.55093 | -92.41914 | 31994 ft | 436 kts | 351° |
| 2026-04-29 13:31 | 32.61172 | -92.41524 | 31994 ft | 436 kts | 351° |
| 2026-04-29 13:31 | 32.67223 | -92.41135 | 31994 ft | 435 kts | 351° |
| 2026-04-29 13:32 | 32.73311 | -92.40743 | 31994 ft | 436 kts | 351° |
| 2026-04-29 13:32 | 32.79332 | -92.40355 | 31994 ft | 436 kts | 351° |
| 2026-04-29 13:33 | 32.85389 | -92.39964 | 31994 ft | 436 kts | 351° |
| 2026-04-29 13:33 | 32.91450 | -92.39573 | 31995 ft | 437 kts | 352° |
| 2026-04-29 13:34 | 32.97522 | -92.39180 | 31995 ft | 436 kts | 352° |
| 2026-04-29 13:34 | 33.03593 | -92.38786 | 31996 ft | 436 kts | 352° |
| 2026-04-29 13:35 | 33.09654 | -92.38393 | 31999 ft | 437 kts | 352° |
| 2026-04-29 13:35 | 33.15728 | -92.37998 | 31999 ft | 437 kts | 352° |
| 2026-04-29 13:36 | 33.21798 | -92.37603 | 31999 ft | 437 kts | 352° |
| 2026-04-29 13:36 | 33.27875 | -92.37207 | 32003 ft | 436 kts | 352° |
| 2026-04-29 13:37 | 33.33943 | -92.36811 | 32002 ft | 437 kts | 352° |
| 2026-04-29 13:37 | 33.40007 | -92.36415 | 32003 ft | 436 kts | 352° |
| 2026-04-29 13:38 | 33.46074 | -92.36018 | 32011 ft | 436 kts | 352° |
| 2026-04-29 13:38 | 33.52136 | -92.35621 | 32009 ft | 436 kts | 352° |
| 2026-04-29 13:39 | 33.58205 | -92.35223 | 32011 ft | 436 kts | 352° |
| 2026-04-29 13:39 | 33.64248 | -92.34826 | 32017 ft | 433 kts | 352° |
| 2026-04-29 13:40 | 33.70278 | -92.34429 | 32014 ft | 434 kts | 352° |
| 2026-04-29 13:40 | 33.76337 | -92.34030 | 31968 ft | 437 kts | 353° |
| 2026-04-29 13:41 | 33.79355 | -92.33831 | 31715 ft | 433 kts | 353° |
| 2026-04-29 13:41 | 33.82359 | -92.33632 | 31463 ft | 430 kts | 352° |
| 2026-04-29 13:41 | 33.85345 | -92.33435 | 31213 ft | 431 kts | 352° |
| 2026-04-29 13:41 | 33.88352 | -92.33236 | 30963 ft | 433 kts | 352° |
| 2026-04-29 13:42 | 33.91373 | -92.33036 | 30713 ft | 435 kts | 352° |
| 2026-04-29 13:42 | 33.94395 | -92.32836 | 30463 ft | 435 kts | 353° |
| 2026-04-29 13:42 | 33.97416 | -92.32636 | 30212 ft | 435 kts | 353° |
| 2026-04-29 13:42 | 34.00449 | -92.32435 | 29962 ft | 437 kts | 353° |
| 2026-04-29 13:43 | 34.03485 | -92.32234 | 29713 ft | 438 kts | 353° |
| 2026-04-29 13:43 | 34.06544 | -92.32031 | 29462 ft | 440 kts | 353° |
| 2026-04-29 13:43 | 34.09605 | -92.31827 | 29212 ft | 441 kts | 353° |
| 2026-04-29 13:43 | 34.12673 | -92.31623 | 28803 ft | 440 kts | 353° |
| 2026-04-29 13:44 | 34.15726 | -92.31421 | 27814 ft | 442 kts | 353° |
| 2026-04-29 13:44 | 34.18806 | -92.31215 | 26987 ft | 441 kts | 352° |
| 2026-04-29 13:44 | 34.21847 | -92.31012 | 26297 ft | 437 kts | 352° |
| 2026-04-29 13:44 | 34.24875 | -92.30811 | 25611 ft | 433 kts | 352° |
| 2026-04-29 13:45 | 34.27764 | -92.30618 | 24947 ft | 429 kts | 352° |
| 2026-04-29 13:45 | 34.30610 | -92.30428 | 24301 ft | 426 kts | 352° |
| 2026-04-29 13:45 | 34.33669 | -92.30223 | 23621 ft | 423 kts | 353° |
| 2026-04-29 13:45 | 34.36587 | -92.30028 | 22966 ft | 420 kts | 353° |
| 2026-04-29 13:46 | 34.39514 | -92.29833 | 22302 ft | 417 kts | 353° |
| 2026-04-29 13:46 | 34.42407 | -92.29639 | 21628 ft | 415 kts | 353° |
| 2026-04-29 13:46 | 34.45291 | -92.29446 | 20971 ft | 413 kts | 354° |
| 2026-04-29 13:46 | 34.48142 | -92.29255 | 20313 ft | 410 kts | 354° |
| 2026-04-29 13:47 | 34.50995 | -92.29063 | 19657 ft | 408 kts | 354° |
| 2026-04-29 13:47 | 34.53824 | -92.28873 | 19006 ft | 406 kts | 355° |
| 2026-04-29 13:47 | 34.56636 | -92.28684 | 18361 ft | 402 kts | 355° |
| 2026-04-29 13:47 | 34.59425 | -92.28497 | 17718 ft | 399 kts | 355° |
| 2026-04-29 13:48 | 34.62150 | -92.28314 | 17090 ft | 396 kts | 355° |
| 2026-04-29 13:48 | 34.64805 | -92.28135 | 16422 ft | 395 kts | 355° |
| 2026-04-29 13:48 | 34.67584 | -92.27947 | 15727 ft | 394 kts | 355° |
| 2026-04-29 13:48 | 34.70313 | -92.27763 | 15101 ft | 392 kts | 355° |
| 2026-04-29 13:49 | 34.73030 | -92.27580 | 14478 ft | 389 kts | 0° |
| 2026-04-29 13:49 | 34.75683 | -92.27403 | 14253 ft | 371 kts | 358° |
| 2026-04-29 13:49 | 34.77358 | -92.27290 | 14125 ft | 360 kts | 357° |
| 2026-04-29 13:49 | 34.80629 | -92.27068 | 13461 ft | 351 kts | 356° |
| 2026-04-29 13:50 | 34.83095 | -92.26902 | 12448 ft | 361 kts | 356° |
| 2026-04-29 13:50 | 34.85624 | -92.26730 | 11696 ft | 363 kts | 356° |
| 2026-04-29 13:50 | 34.88120 | -92.26560 | 11324 ft | 354 kts | 356° |
| 2026-04-29 13:50 | 34.89761 | -92.26449 | 11244 ft | 343 kts | 356° |
| 2026-04-29 13:51 | 34.92091 | -92.26290 | 11142 ft | 328 kts | 356° |
| 2026-04-29 13:51 | 34.94313 | -92.26140 | 11046 ft | 313 kts | 355° |
| 2026-04-29 13:51 | 34.96415 | -92.25997 | 10955 ft | 298 kts | 355° |
| 2026-04-29 13:51 | 34.98434 | -92.25860 | 10860 ft | 285 kts | 355° |
| 2026-04-29 13:52 | 35.00379 | -92.25728 | 10760 ft | 271 kts | 354° |
| 2026-04-29 13:52 | 35.02236 | -92.25602 | 10530 ft | 264 kts | 354° |
| 2026-04-29 13:52 | 35.04048 | -92.25479 | 10163 ft | 262 kts | 354° |
| 2026-04-29 13:52 | 35.05864 | -92.25356 | 9768 ft | 262 kts | 354° |
| 2026-04-29 13:53 | 35.07662 | -92.25233 | 9543 ft | 254 kts | 354° |
| 2026-04-29 13:53 | 35.09385 | -92.25117 | 9443 ft | 242 kts | 354° |
| 2026-04-29 13:53 | 35.11045 | -92.25004 | 9204 ft | 236 kts | 354° |
| 2026-04-29 13:53 | 35.12683 | -92.24893 | 8861 ft | 235 kts | 354° |
| 2026-04-29 13:54 | 35.14322 | -92.24781 | 8493 ft | 236 kts | 354° |
| 2026-04-29 13:54 | 35.15961 | -92.24670 | 8128 ft | 236 kts | 354° |
| 2026-04-29 13:54 | 35.17568 | -92.24560 | 7880 ft | 231 kts | 354° |
| 2026-04-29 13:54 | 35.19169 | -92.24451 | 7546 ft | 230 kts | 355° |
| 2026-04-29 13:55 | 35.20774 | -92.24341 | 7206 ft | 230 kts | 355° |
| 2026-04-29 13:55 | 35.22373 | -92.24232 | 6866 ft | 229 kts | 355° |
| 2026-04-29 13:55 | 35.23951 | -92.24124 | 6652 ft | 222 kts | 355° |
| 2026-04-29 13:55 | 35.25435 | -92.24022 | 6545 ft | 206 kts | 354° |
| 2026-04-29 13:56 | 35.26854 | -92.23926 | 6194 ft | 204 kts | 354° |
| 2026-04-29 13:56 | 35.28273 | -92.23829 | 5803 ft | 204 kts | 354° |
| 2026-04-29 13:56 | 35.29626 | -92.23736 | 5704 ft | 188 kts | 354° |
| 2026-04-29 13:56 | 35.30888 | -92.23649 | 5492 ft | 178 kts | 353° |
| 2026-04-29 13:57 | 35.32129 | -92.23564 | 5098 ft | 178 kts | 354° |
| 2026-04-29 13:57 | 35.33363 | -92.23480 | 5000 ft | 176 kts | 355° |
| 2026-04-29 13:57 | 35.34565 | -92.23397 | 5012 ft | 170 kts | 355° |
| 2026-04-29 13:57 | 35.35730 | -92.23317 | 4996 ft | 166 kts | 355° |
| 2026-04-29 13:58 | 35.36872 | -92.23239 | 4970 ft | 162 kts | 356° |
| 2026-04-29 13:58 | 35.38010 | -92.23161 | 4838 ft | 165 kts | 355° |
| 2026-04-29 13:58 | 35.39142 | -92.23083 | 4698 ft | 164 kts | 357° |
| 2026-04-29 13:58 | 35.40276 | -92.22954 | 4545 ft | 166 kts | 9° |
| 2026-04-29 13:59 | 35.41206 | -92.22058 | 4408 ft | 177 kts | 43° |
| 2026-04-29 13:59 | 35.41879 | -92.20759 | 4185 ft | 183 kts | 53° |
| 2026-04-29 13:59 | 35.42505 | -92.19394 | 3925 ft | 183 kts | 53° |
| 2026-04-29 13:59 | 35.43136 | -92.18055 | 3675 ft | 180 kts | 53° |
| 2026-04-29 14:00 | 35.43766 | -92.16735 | 3434 ft | 179 kts | 54° |
| 2026-04-29 14:00 | 35.44397 | -92.15416 | 3196 ft | 180 kts | 55° |
| 2026-04-29 14:00 | 35.45030 | -92.14093 | 2955 ft | 180 kts | 56° |
| 2026-04-29 14:00 | 35.45657 | -92.12784 | 2731 ft | 174 kts | 57° |
| 2026-04-29 14:01 | 35.46258 | -92.11531 | 2492 ft | 170 kts | 57° |
| 2026-04-29 14:01 | 35.46857 | -92.10282 | 2252 ft | 170 kts | 58° |
| 2026-04-29 14:01 | 35.47458 | -92.09029 | 2044 ft | 169 kts | 56° |
| 2026-04-29 14:01 | 35.48040 | -92.07816 | 1823 ft | 161 kts | 57° |
| 2026-04-29 14:02 | 35.48590 | -92.06670 | 1630 ft | 149 kts | 59° |
| 2026-04-29 14:02 | 35.49100 | -92.05606 | 1403 ft | 140 kts | 61° |
| 2026-04-29 14:02 | 35.49577 | -92.04613 | 1207 ft | 132 kts | 62° |
| 2026-04-29 14:02 | 35.50030 | -92.03660 | 1009 ft | 126 kts | 60° |
| 2026-04-29 14:03 | 35.50468 | -92.02734 | 707 ft | 131 kts | 60° |
| 2026-04-29 14:03 | 35.50930 | -92.01702 | 1158 ft | 136 kts | 61° |
| 2026-04-29 14:03 | 35.51354 | -92.00621 | 1897 ft | 148 kts | 63° |
| 2026-04-29 14:03 | 35.51803 | -91.99441 | 2590 ft | 159 kts | 61° |
| 2026-04-29 14:04 | 35.52397 | -91.98214 | 3255 ft | 171 kts | 53° |
| 2026-04-29 14:04 | 35.53086 | -91.96893 | 3523 ft | 199 kts | 53° |
| 2026-04-29 14:04 | 35.53875 | -91.95400 | 3487 ft | 214 kts | 53° |
| 2026-04-29 14:04 | 35.54711 | -91.93820 | 3689 ft | 226 kts | 53° |
| 2026-04-29 14:05 | 35.55564 | -91.92187 | 3904 ft | 233 kts | 53° |
| 2026-04-29 14:05 | 35.56446 | -91.90479 | 4120 ft | 239 kts | 53° |
| 2026-04-29 14:05 | 35.57338 | -91.88737 | 4333 ft | 242 kts | 53° |
| 2026-04-29 14:05 | 35.58237 | -91.86963 | 4543 ft | 245 kts | 65° |
| 2026-04-29 14:06 | 35.58695 | -91.85042 | 4727 ft | 226 kts | 99° |
| 2026-04-29 14:06 | 35.58149 | -91.83376 | 4919 ft | 208 kts | 136° |
| 2026-04-29 14:06 | 35.56951 | -91.82226 | 5039 ft | 233 kts | 152° |
| 2026-04-29 14:06 | 35.55515 | -91.81115 | 5106 ft | 252 kts | 150° |
| 2026-04-29 14:07 | 35.54022 | -91.79922 | 5104 ft | 259 kts | 150° |
| 2026-04-29 14:07 | 35.52516 | -91.78722 | 5081 ft | 262 kts | 150° |
| 2026-04-29 14:07 | 35.50869 | -91.77885 | 5003 ft | 251 kts | 180° |
| 2026-04-29 14:07 | 35.49264 | -91.78280 | 5009 ft | 227 kts | 218° |
| 2026-04-29 14:08 | 35.48158 | -91.79566 | 5060 ft | 216 kts | 239° |
| 2026-04-29 14:08 | 35.47230 | -91.81017 | 5057 ft | 216 kts | 240° |
| 2026-04-29 14:08 | 35.46298 | -91.82467 | 5054 ft | 215 kts | 240° |
| 2026-04-29 14:08 | 35.45370 | -91.83915 | 5023 ft | 217 kts | 240° |
| 2026-04-29 14:09 | 35.44439 | -91.85373 | 4969 ft | 217 kts | 240° |
| 2026-04-29 14:09 | 35.43511 | -91.86827 | 4985 ft | 215 kts | 240° |
| 2026-04-29 14:09 | 35.42597 | -91.88250 | 4983 ft | 217 kts | 240° |
| 2026-04-29 14:09 | 35.41643 | -91.89735 | 5001 ft | 228 kts | 240° |
| 2026-04-29 14:10 | 35.40651 | -91.91308 | 5015 ft | 235 kts | 240° |
| 2026-04-29 14:10 | 35.39657 | -91.92889 | 5000 ft | 234 kts | 240° |
| 2026-04-29 14:10 | 35.38668 | -91.94484 | 5061 ft | 236 kts | 240° |
| 2026-04-29 14:10 | 35.37668 | -91.96077 | 4979 ft | 232 kts | 240° |
| 2026-04-29 14:11 | 35.36694 | -91.97624 | 4978 ft | 227 kts | 240° |
| 2026-04-29 14:11 | 35.35722 | -91.99157 | 4988 ft | 228 kts | 240° |
| 2026-04-29 14:11 | 35.34760 | -92.00677 | 5000 ft | 227 kts | 240° |
| 2026-04-29 14:11 | 35.33781 | -92.02218 | 5003 ft | 225 kts | 240° |
| 2026-04-29 14:12 | 35.32841 | -92.03708 | 5026 ft | 221 kts | 240° |
| 2026-04-29 14:12 | 35.31940 | -92.05220 | 5014 ft | 214 kts | 240° |
| 2026-04-29 14:12 | 35.31073 | -92.06661 | 5009 ft | 207 kts | 240° |
| 2026-04-29 14:12 | 35.30237 | -92.08053 | 5009 ft | 203 kts | 240° |
| 2026-04-29 14:13 | 35.29399 | -92.09453 | 5016 ft | 205 kts | 240° |
| 2026-04-29 14:13 | 35.28563 | -92.10867 | 5017 ft | 204 kts | 240° |
| 2026-04-29 14:13 | 35.27699 | -92.12301 | 5005 ft | 209 kts | 240° |
| 2026-04-29 14:13 | 35.27022 | -92.13823 | 4952 ft | 204 kts | 264° |
| 2026-04-29 14:14 | 35.27269 | -92.15452 | 4955 ft | 200 kts | 303° |
| 2026-04-29 14:14 | 35.28351 | -92.16535 | 5008 ft | 208 kts | 327° |
| 2026-04-29 14:14 | 35.29698 | -92.17264 | 5027 ft | 213 kts | 330° |
| 2026-04-29 14:14 | 35.31046 | -92.18010 | 5015 ft | 212 kts | 330° |
| 2026-04-29 14:15 | 35.32352 | -92.18724 | 4829 ft | 223 kts | 342° |
| 2026-04-29 14:15 | 35.33732 | -92.19772 | 4603 ft | 235 kts | 330° |
| 2026-04-29 14:15 | 35.35040 | -92.20944 | 4356 ft | 230 kts | 330° |
| 2026-04-29 14:15 | 35.36333 | -92.22066 | 4105 ft | 225 kts | 330° |
| 2026-04-29 14:16 | 35.37592 | -92.23132 | 4003 ft | 212 kts | 330° |
| 2026-04-29 14:16 | 35.38808 | -92.23887 | 3954 ft | 190 kts | 355° |
| 2026-04-29 14:16 | 35.39993 | -92.23505 | 3928 ft | 176 kts | 36° |
| 2026-04-29 14:16 | 35.40808 | -92.22350 | 4009 ft | 178 kts | 49° |
| 2026-04-29 14:17 | 35.41570 | -92.21148 | 4034 ft | 182 kts | 51° |
| 2026-04-29 14:17 | 35.42269 | -92.19858 | 4010 ft | 183 kts | 54° |
| 2026-04-29 14:17 | 35.42923 | -92.18498 | 3792 ft | 189 kts | 56° |
| 2026-04-29 14:17 | 35.43595 | -92.17091 | 3530 ft | 190 kts | 55° |
| 2026-04-29 14:18 | 35.44263 | -92.15694 | 3247 ft | 190 kts | 57° |
| 2026-04-29 14:18 | 35.44918 | -92.14326 | 3051 ft | 182 kts | 55° |
| 2026-04-29 14:18 | 35.45546 | -92.13017 | 2787 ft | 174 kts | 56° |
| 2026-04-29 14:18 | 35.46135 | -92.11786 | 2591 ft | 160 kts | 56° |
| 2026-04-29 14:19 | 35.46680 | -92.10652 | 2342 ft | 155 kts | 56° |
| 2026-04-29 14:19 | 35.47234 | -92.09496 | 2142 ft | 159 kts | 57° |
| 2026-04-29 14:19 | 35.47795 | -92.08327 | 1974 ft | 156 kts | 57° |
| 2026-04-29 14:19 | 35.48353 | -92.07162 | 1715 ft | 164 kts | 52° |
| 2026-04-29 14:20 | 35.48934 | -92.05951 | 1500 ft | 163 kts | 52° |
| 2026-04-29 14:20 | 35.49508 | -92.04755 | 1281 ft | 163 kts | 54° |
| 2026-04-29 14:20 | 35.50081 | -92.03563 | 1065 ft | 162 kts | 57° |
| 2026-04-29 14:20 | 35.50648 | -92.02377 | 801 ft | 161 kts | 59° |
| 2026-04-29 14:21 | 35.51185 | -92.01275 | 640 ft | 129 kts | 60° |
| 2026-04-29 14:21 | 35.51475 | -92.00645 | 640 ft | 41 kts | 57° |
| 2026-04-29 14:21 | 35.51548 | -92.00549 | 640 ft | 0 kts | 360° |